• Join FlightAware (Why Join?)
  • Login
  • US Flag 
10:20PM EST


 

Airport Tracker/Info


-or-


 

Live Flight TrackerFlight Track Log ✈ IBE3329 ✈ 14-Apr-2013 ✈ GOOY / DKR - LEMD / MAD

Flight Track Log - Related Links

Times and Time Zones

All times are in EDT time to prevent confusion due to time zone crossing. See the IBE3329 flight status page for this flight to view local times or setup timezone preferences in your user account.

Time Position Orientation Groundspeed Altitude Reporting Facility
EDT Latitude Longitude Course Direction KTS MPH feet Rate Location/Type
07:16PM 21.2352 -14.5905 23° Northeast  Level Estimated
07:17PM 21.3468 -14.5385 23° Northeast  Level Estimated
07:18PM 21.4583 -14.4864 23° Northeast  Level Estimated
07:19PM 21.5699 -14.4342 24° Northeast  Level Estimated
07:20PM 21.6814 -14.3820 24° Northeast  Level Estimated
07:21PM 21.7929 -14.3296 24° Northeast  Level Estimated
07:22PM 21.9044 -14.2772 24° Northeast  Level Estimated
07:23PM 22.0159 -14.2247 24° Northeast  Level Estimated
07:24PM 22.1274 -14.1721 24° Northeast  Level Estimated
07:25PM 22.2388 -14.1194 24° Northeast  Level Estimated
07:26PM 22.3503 -14.0667 24° Northeast  Level Estimated
07:27PM 22.4617 -14.0139 24° Northeast  Level Estimated
07:28PM 22.5731 -13.9609 24° Northeast  Level Estimated
07:29PM 22.6845 -13.9079 24° Northeast  Level Estimated
07:30PM 22.7958 -13.8548 24° Northeast  Level Estimated
07:31PM 22.9072 -13.8016 24° Northeast  Level Estimated
07:32PM 23.0185 -13.7484 24° Northeast  Level Estimated
07:33PM 23.1298 -13.6950 24° Northeast  Level Estimated
07:34PM 23.2411 -13.6416 24° Northeast  Level Estimated
07:35PM 23.3524 -13.5880 24° Northeast  Level Estimated
07:36PM 23.4636 -13.5344 24° Northeast  Level Estimated
07:37PM 23.5749 -13.4807 24° Northeast  Level Estimated
07:38PM 23.6861 -13.4269 24° Northeast  Level Estimated
07:39PM 23.7973 -13.3730 24° Northeast  Level Estimated
07:40PM 23.9085 -13.3190 24° Northeast  Level Estimated
07:41PM 24.0196 -13.2649 24° Northeast  Level Estimated
07:42PM 24.1308 -13.2107 24° Northeast  Level Estimated
07:43PM 24.2419 -13.1564 24° Northeast  Level Estimated
07:44PM 24.3530 -13.1021 24° Northeast  Level Estimated
07:45PM 24.4641 -13.0476 24° Northeast  Level Estimated
07:46PM 24.5752 -12.9930 24° Northeast  Level Estimated
07:47PM 24.6862 -12.9384 24° Northeast  Level Estimated
07:48PM 24.7972 -12.8836 24° Northeast  Level Estimated
07:49PM 24.9083 -12.8288 24° Northeast  Level Estimated
07:50PM 25.0192 -12.7739 24° Northeast  Level Estimated
07:51PM 25.1302 -12.7188 24° Northeast  Level Estimated
07:52PM 25.2412 -12.6636 24° Northeast  Level Estimated
07:53PM 25.3521 -12.6084 24° Northeast  Level Estimated
07:54PM 25.4630 -12.5531 24° Northeast  Level Estimated
07:55PM 25.5739 -12.4976 24° Northeast  Level Estimated
07:56PM 25.6847 -12.4420 24° Northeast  Level Estimated
07:57PM 25.7956 -12.3864 24° Northeast  Level Estimated
07:58PM 25.9064 -12.3306 24° Northeast  Level Estimated
07:59PM 26.0172 -12.2747 24° Northeast  Level Estimated
08:00PM 26.1280 -12.2188 24° Northeast  Level Estimated
08:01PM 26.2387 -12.1627 24° Northeast  Level Estimated
08:02PM 26.3495 -12.1065 24° Northeast  Level Estimated
08:03PM 26.4602 -12.0502 24° Northeast  Level Estimated
08:04PM 26.5709 -11.9938 24° Northeast  Level Estimated
08:05PM 26.6815 -11.9373 25° Northeast  Level Estimated
08:06PM 26.7922 -11.8807 25° Northeast  Level Estimated
08:07PM 26.9028 -11.8240 25° Northeast  Level Estimated
08:08PM 27.0134 -11.7671 25° Northeast  Level Estimated
08:09PM 27.1240 -11.7102 25° Northeast  Level Estimated
08:10PM 27.2346 -11.6531 25° Northeast  Level Estimated
08:11PM 27.3451 -11.5959 25° Northeast  Level Estimated
08:12PM 27.4556 -11.5386 25° Northeast  Level Estimated
08:13PM 27.5661 -11.4812 25° Northeast  Level Estimated
08:14PM 27.6765 -11.4237 25° Northeast  Level Estimated
08:15PM 27.7870 -11.3660 25° Northeast  Level Estimated
08:16PM 27.8974 -11.3083 25° Northeast  Level Estimated
08:17PM 28.0078 -11.2504 25° Northeast  Level Estimated
08:18PM 28.1182 -11.1924 25° Northeast  Level Estimated
08:19PM 28.2285 -11.1343 25° Northeast  Level Estimated
08:20PM 28.3388 -11.0760 25° Northeast  Level Estimated
08:21PM 28.4491 -11.0177 25° Northeast  Level Estimated
08:22PM 28.5594 -10.9592 25° Northeast  Level Estimated
08:23PM 28.6696 -10.9006 25° Northeast  Level Estimated
08:24PM 28.7798 -10.8419 25° Northeast  Level Estimated
08:25PM 28.8900 -10.7830 25° Northeast  Level Estimated
08:26PM 29.0002 -10.7240 25° Northeast  Level Estimated
08:27PM 29.1103 -10.6649 25° Northeast  Level Estimated
08:28PM 29.2204 -10.6057 25° Northeast  Level Estimated
08:29PM 29.3305 -10.5463 25° Northeast  Level Estimated
08:30PM 29.4406 -10.4869 25° Northeast  Level Estimated
08:31PM 29.5506 -10.4272 25° Northeast  Level Estimated
08:32PM 29.6606 -10.3675 25° Northeast  Level Estimated
08:33PM 29.7706 -10.3076 25° Northeast  Level Estimated
08:34PM 29.8806 -10.2476 25° Northeast  Level Estimated
08:35PM 29.9905 -10.1875 25° Northeast  Level Estimated
08:36PM 30.1004 -10.1272 25° Northeast  Level Estimated
08:37PM 30.2103 -10.0668 25° Northeast  Level Estimated
08:38PM 30.3201 -10.0063 25° Northeast  Level Estimated
08:39PM 30.4299 -9.9456 25° Northeast  Level Estimated
08:40PM 30.5397 -9.8848 26° Northeast  Level Estimated
08:41PM 30.6495 -9.8238 26° Northeast  Level Estimated
08:42PM 30.7592 -9.7627 26° Northeast  Level Estimated
08:43PM 30.8689 -9.7015 26° Northeast  Level Estimated
08:44PM 30.9786 -9.6402 26° Northeast  Level Estimated
08:45PM 31.0882 -9.5786 26° Northeast  Level Estimated
08:46PM 31.1978 -9.5170 26° Northeast  Level Estimated
08:47PM 31.3074 -9.4552 26° Northeast  Level Estimated
08:48PM 31.4170 -9.3933 26° Northeast  Level Estimated
08:49PM 31.5265 -9.3312 26° Northeast  Level Estimated
08:50PM 31.6360 -9.2690 26° Northeast  Level Estimated
08:51PM 31.7455 -9.2066 26° Northeast  Level Estimated
08:52PM 31.8549 -9.1440 26° Northeast  Level Estimated
08:53PM 31.9643 -9.0814 26° Northeast  Level Estimated
08:54PM 32.0737 -9.0186 26° Northeast  Level Estimated
08:55PM 32.1830 -8.9556 26° Northeast  Level Estimated
08:56PM 32.2924 -8.8925 26° Northeast  Level Estimated
08:57PM 32.4016 -8.8292 26° Northeast  Level Estimated
08:58PM 32.5109 -8.7658 26° Northeast  Level Estimated
08:59PM 32.6201 -8.7022 26° Northeast  Level Estimated
09:00PM 32.7293 -8.6384 26° Northeast  Level Estimated
09:01PM 32.8384 -8.5745 26° Northeast  Level Estimated
09:02PM 32.9476 -8.5105 26° Northeast  Level Estimated
09:03PM 33.0566 -8.4463 26° Northeast  Level Estimated
09:04PM 33.1657 -8.3819 26° Northeast  Level Estimated
09:05PM 33.2747 -8.3174 26° Northeast  Level Estimated
09:06PM 33.3837 -8.2527 26° Northeast  Level Estimated
09:07PM 33.4926 -8.1878 26° Northeast  Level Estimated
09:08PM 33.6016 -8.1228 26° Northeast  Level Estimated
09:09PM 33.7105 -8.0576 26° Northeast  Level Estimated
09:10PM 33.8193 -7.9923 27° Northeast  Level Estimated
09:11PM 33.9281 -7.9268 27° Northeast  Level Estimated
09:12PM 34.0369 -7.8611 27° Northeast  Level Estimated
09:13PM 34.1457 -7.7952 27° Northeast  Level Estimated
09:14PM 34.2544 -7.7292 27° Northeast  Level Estimated
09:15PM 34.3630 -7.6630 27° Northeast  Level Estimated
09:16PM 34.4717 -7.5967 27° Northeast  Level Estimated
09:17PM 34.5803 -7.5301 27° Northeast  Level Estimated
09:18PM 34.6889 -7.4634 27° Northeast  Level Estimated
09:19PM 34.7974 -7.3966 27° Northeast  Level Estimated
09:20PM 34.9059 -7.3295 27° Northeast  Level Estimated
09:21PM 35.0144 -7.2622 27° Northeast  Level Estimated
09:21PM 34.3640 -7.1840 27° Northeast 428 493 32,000  Level FlightAware
09:22PM 35.1228 -7.1948 27° Northeast  Level Estimated
09:22PM 34.4240 -7.1490 26° Northeast 427 491 32,000  Level FlightAware
09:23PM 34.5070 -7.1000 26° Northeast 417 480 32,000  Level FlightAware
09:23PM 34.5850 -7.0550 25° Northeast 414 476 32,000  Level FlightAware
09:24PM 34.6630 -7.0090 26° Northeast 411 473 32,000  Level FlightAware
09:25PM 34.7340 -6.9670 26° Northeast 410 472 32,000  Level FlightAware
09:26PM 34.8130 -6.9210 26° Northeast 412 474 32,000  Level FlightAware
09:26PM 34.8830 -6.8800 26° Northeast 414 476 32,000  Level FlightAware
09:27PM 34.9530 -6.8380 26° Northeast 417 480 32,000 60 Level FlightAware
09:28PM 35.0330 -6.7900 26° Northeast 425 489 32,100 60 Climbing FlightAware
09:28PM 35.1040 -6.7480 26° Northeast 416 479 32,100 -120 Level FlightAware
09:29PM 35.1830 -6.7010 26° Northeast 416 479 32,000 -120 Descending FlightAware
09:30PM 35.2540 -6.6590 26° Northeast 417 480 32,000  Level FlightAware
09:30PM 35.3250 -6.6170 26° Northeast 415 478 32,000  Level FlightAware
09:31PM 35.4040 -6.5700 26° Northeast 415 478 32,000  Level FlightAware
09:32PM 35.4730 -6.5280 26° Northeast 414 476 32,000  Level FlightAware
09:33PM 35.5530 -6.4820 25° Northeast 410 472 32,000  Level FlightAware
09:33PM 35.6280 -6.4540 17° North 417 480 32,000  Level FlightAware
09:34PM 35.7110 -6.4240 16° North 416 479 32,000  Level FlightAware
09:35PM 35.7840 -6.3960 17° North 416 479 32,000  Level FlightAware
09:35PM 35.8590 -6.3690 16° North 416 479 32,000  Level FlightAware
09:36PM 35.9420 -6.3380 17° North 417 480 32,000  Level FlightAware
09:37PM 36.0160 -6.3100 17° North 419 482 32,000  Level FlightAware
09:37PM 36.1000 -6.2790 17° North 418 481 32,000  Level FlightAware
09:38PM 36.1740 -6.2510 17° North 419 482 32,000  Level FlightAware
09:39PM 36.2490 -6.2230 17° North 419 482 32,000  Level FlightAware
09:40PM 36.3320 -6.1920 17° North 419 482 32,000  Level FlightAware
09:40PM 36.4070 -6.1640 17° North 420 483 32,000  Level FlightAware
09:41PM 36.4900 -6.1320 17° North 421 484 32,000  Level FlightAware
09:42PM 36.5650 -6.1040 17° North 422 486 32,000  Level FlightAware
09:42PM 36.6400 -6.0750 17° North 423 487 32,000  Level FlightAware
09:43PM 36.7240 -6.0430 17° North 423 487 32,000  Level FlightAware
09:44PM 36.7990 -6.0150 17° North 422 486 32,000  Level FlightAware
09:44PM 36.8830 -5.9830 17° North 421 484 32,000  Level FlightAware
09:45PM 36.9580 -5.9540 17° North 421 484 32,000  Level FlightAware
09:46PM 37.0330 -5.9250 17° North 420 483 32,000  Level FlightAware
09:47PM 37.1160 -5.8930 17° North 420 483 32,000  Level FlightAware
09:47PM 37.1910 -5.8640 17° North 420 483 32,000  Level FlightAware
09:48PM 37.2750 -5.8320 17° North 420 483 32,000  Level FlightAware
09:49PM 37.3500 -5.8030 17° North 420 483 32,000  Level FlightAware
09:49PM 37.4240 -5.7750 17° North 421 484 32,000  Level FlightAware
09:50PM 37.5090 -5.7420 17° North 422 486 32,000  Level FlightAware
09:51PM 37.5830 -5.7130 17° North 423 487 32,000  Level FlightAware
09:51PM 37.6670 -5.6800 17° North 425 489 32,000  Level FlightAware
09:52PM 37.7430 -5.6500 17° North 425 489 32,000  Level FlightAware
09:53PM 37.8180 -5.6210 17° North 425 489 32,000  Level FlightAware
09:54PM 37.9040 -5.5870 17° North 423 487 32,000  Level FlightAware
09:54PM 37.9780 -5.5580 17° North 424 488 32,000  Level FlightAware
09:55PM 38.0620 -5.5250 17° North 425 489 32,000  Level FlightAware
09:56PM 38.1370 -5.4950 17° North 418 481 32,000  Level FlightAware
09:56PM 38.2140 -5.4650 17° North 419 482 32,000  Level FlightAware
09:57PM 38.2980 -5.4310 18° North 419 482 32,000  Level FlightAware
09:58PM 38.3740 -5.4010 17° North 421 484 32,000  Level FlightAware
10:00PM 38.5555 -5.2492 33° Northeast  Level Estimated
10:01PM 38.6572 -5.1637 33° Northeast  Level Estimated
10:02PM 38.7588 -5.0780 33° Northeast  Level Estimated
10:02PM 38.8670 -5.1970 33° Northeast 436 502 32,000  Level FlightAware
10:03PM 38.9610 -5.1260 30° Northeast 441 507 32,000  Level FlightAware
10:04PM 39.0240 -5.0580 40° Northeast 447 514 32,000 -120 Level FlightAware
10:04PM 39.0850 -4.9690 49° Northeast 452 520 31,900 -960 Descending FlightAware
10:05PM 39.1310 -4.8760 57° Northeast 445 512 30,700 -1,800 Descending FlightAware
10:06PM 39.1730 -4.7900 58° Northeast 434 499 29,500 -1,920 Descending FlightAware
10:06PM 39.2280 -4.7000 52° Northeast 420 483 28,000 -2,100 Descending FlightAware
10:07PM 39.2830 -4.6310 44° Northeast 413 475 26,600 -2,160 Descending FlightAware
10:08PM 39.3430 -4.5520 46° Northeast 408 470 25,000 -2,100 Descending FlightAware
10:08PM 39.3950 -4.4840 45° Northeast 402 463 23,700 -1,800 Descending FlightAware
10:09PM 39.4490 -4.4140 45° Northeast 385 443 22,600 -1,920 Descending FlightAware
10:10PM 39.5040 -4.3420 45° Northeast 386 444 21,000 -2,100 Descending FlightAware
10:11PM 39.5530 -4.2780 45° Northeast 382 440 19,700 -2,100 Descending FlightAware
10:11PM 39.6110 -4.2030 45° Northeast 381 438 18,100 -1,860 Descending FlightAware
10:12PM 39.6610 -4.1370 45° Northeast 376 433 17,100 -1,500 Descending FlightAware
10:13PM 39.7100 -4.0730 45° Northeast 373 429 16,100 -1,560 Descending FlightAware
10:13PM 39.7640 -4.0010 46° Northeast 371 427 14,900 -1,500 Descending FlightAware
10:14PM 39.8110 -3.9390 45° Northeast 365 420 14,000 -1,500 Descending FlightAware
10:15PM 39.8580 -3.8770 45° Northeast 362 417 12,900 -1,560 Descending FlightAware
10:15PM 39.9130 -3.8050 45° Northeast 359 413 11,800 -1,860 Descending FlightAware
10:16PM 39.9590 -3.7430 46° Northeast 364 419 10,300 -2,520 Descending FlightAware
10:17PM 39.9950 -3.6950 46° Northeast 374 430 8,900 -2,400 Descending FlightAware
10:17PM 40.0300 -3.6480 46° Northeast 371 427 7,900 -1,860 Descending FlightAware
10:18PM 40.0590 -3.6100 45° Northeast 361 415 7,200 -1,980 Descending FlightAware
10:18PM 40.0780 -3.5850 45° Northeast 358 412 6,600 -1,500 Descending FlightAware
10:18PM 40.1100 -3.5410 46° Northeast 340 391 6,100 -900 Descending FlightAware
10:19PM 40.1370 -3.5050 46° Northeast 320 368 5,800 -660 Descending FlightAware
10:19PM 40.1670 -3.4650 46° Northeast 296 341 5,500 -600 Descending FlightAware
10:20PM 40.1910 -3.4320 46° Northeast 276 318 5,300 -660 Descending FlightAware
10:20PM 40.2170 -3.3980 45° Northeast 256 295 4,900 -600 Descending FlightAware
10:21PM 40.2370 -3.3720 45° Northeast 250 288 4,800 -180 Descending FlightAware
10:21PM 40.2490 -3.3570 44° Northeast 248 285 4,800  Level FlightAware
10:21PM 40.2640 -3.3450 31° Northeast 243 280 4,800 -240 Level FlightAware
10:21PM 40.2780 -3.3420 North 240 276 4,700 120 Descending FlightAware
10:22PM 40.3040 -3.3600 332° Northwest 177 204 4,900 60 Climbing FlightAware
10:22PM 40.3170 -3.3780 313° West 162 186 4,800 -120 Descending FlightAware
10:23PM 40.3350 -3.3960 323° Northwest 154 177 4,800 -120 Level FlightAware
10:23PM 40.3490 -3.4110 321° Northwest 164 189 4,700 -600 Descending FlightAware
10:24PM 40.3670 -3.4290 323° Northwest 166 191 4,300 -900 Descending FlightAware
10:24PM 40.3860 -3.4470 324° Northwest 166 191 3,800 -1,020 Descending FlightAware
10:25PM 40.4010 -3.4630 321° Northwest 169 194 3,400 -900 Descending FlightAware
10:25PM 40.4200 -3.4820 323° Northwest 167 192 3,000 -780 Descending FlightAware
10:25PM 40.4340 -3.4970 321° Northwest 159 183 2,700 -900 Descending FlightAware
10:26PM 40.4520 -3.5150 323° Northwest 157 181 2,200 -960 Descending FlightAware
10:26PM 40.4610 -3.5240 323° Northwest 158 182 2,000 -900 Descending FlightAware
10:27PM 40.4760 -3.5380 325° Northwest 158 182 1,600 -960 Descending FlightAware